sensor_id;sensor_type;location;lat;lon;timestamp;temperature;humidity
69628;DHT22;56850;51.984;5.088;2023-04-12T00:00:15;11.60;67.50
69628;DHT22;56850;51.984;5.088;2023-04-12T00:02:43;11.60;67.90
69628;DHT22;56850;51.984;5.088;2023-04-12T00:05:10;11.60;68.00
69628;DHT22;56850;51.984;5.088;2023-04-12T00:07:39;11.50;68.40
69628;DHT22;56850;51.984;5.088;2023-04-12T00:10:08;11.50;68.50
69628;DHT22;56850;51.984;5.088;2023-04-12T00:12:35;11.40;68.90
69628;DHT22;56850;51.984;5.088;2023-04-12T00:15:03;11.40;69.00
69628;DHT22;56850;51.984;5.088;2023-04-12T00:17:33;11.40;69.20
69628;DHT22;56850;51.984;5.088;2023-04-12T00:20:01;11.30;69.30
69628;DHT22;56850;51.984;5.088;2023-04-12T00:22:31;11.30;69.50
69628;DHT22;56850;51.984;5.088;2023-04-12T00:24:58;11.20;69.60
69628;DHT22;56850;51.984;5.088;2023-04-12T00:27:25;11.20;69.80
69628;DHT22;56850;51.984;5.088;2023-04-12T00:29:52;11.20;70.00
69628;DHT22;56850;51.984;5.088;2023-04-12T00:32:19;11.20;70.00
69628;DHT22;56850;51.984;5.088;2023-04-12T00:34:46;11.20;70.10
69628;DHT22;56850;51.984;5.088;2023-04-12T00:37:13;11.10;70.10
69628;DHT22;56850;51.984;5.088;2023-04-12T00:39:40;11.10;70.40
69628;DHT22;56850;51.984;5.088;2023-04-12T00:42:06;11.00;70.50
69628;DHT22;56850;51.984;5.088;2023-04-12T00:44:34;11.00;70.60
69628;DHT22;56850;51.984;5.088;2023-04-12T00:47:03;11.00;70.80
69628;DHT22;56850;51.984;5.088;2023-04-12T00:49:32;10.90;71.00
69628;DHT22;56850;51.984;5.088;2023-04-12T00:52:03;10.90;71.00
69628;DHT22;56850;51.984;5.088;2023-04-12T00:54:33;10.90;71.10
69628;DHT22;56850;51.984;5.088;2023-04-12T00:57:00;10.80;71.40
69628;DHT22;56850;51.984;5.088;2023-04-12T00:59:28;10.80;71.60
69628;DHT22;56850;51.984;5.088;2023-04-12T01:01:56;10.80;71.90
69628;DHT22;56850;51.984;5.088;2023-04-12T01:04:24;10.70;72.00
69628;DHT22;56850;51.984;5.088;2023-04-12T01:09:42;10.70;72.20
69628;DHT22;56850;51.984;5.088;2023-04-12T01:15:09;10.60;72.50
69628;DHT22;56850;51.984;5.088;2023-04-12T01:20:34;10.60;72.60
69628;DHT22;56850;51.984;5.088;2023-04-12T01:26:00;10.60;72.70
69628;DHT22;56850;51.984;5.088;2023-04-12T01:28:33;10.60;72.90
69628;DHT22;56850;51.984;5.088;2023-04-12T01:31:01;10.60;72.90
69628;DHT22;56850;51.984;5.088;2023-04-12T01:33:29;10.60;73.00
69628;DHT22;56850;51.984;5.088;2023-04-12T01:35:58;10.60;73.30
69628;DHT22;56850;51.984;5.088;2023-04-12T01:38:27;10.50;73.50
69628;DHT22;56850;51.984;5.088;2023-04-12T01:40:55;10.50;73.80
69628;DHT22;56850;51.984;5.088;2023-04-12T01:43:21;10.50;73.80
69628;DHT22;56850;51.984;5.088;2023-04-12T01:45:48;10.50;73.90
69628;DHT22;56850;51.984;5.088;2023-04-12T01:48:15;10.50;73.90
69628;DHT22;56850;51.984;5.088;2023-04-12T01:50:48;10.50;74.10
69628;DHT22;56850;51.984;5.088;2023-04-12T01:53:27;10.40;74.10
69628;DHT22;56850;51.984;5.088;2023-04-12T01:55:58;10.40;74.20
69628;DHT22;56850;51.984;5.088;2023-04-12T01:58:26;10.50;74.10
69628;DHT22;56850;51.984;5.088;2023-04-12T02:00:55;10.50;74.00
69628;DHT22;56850;51.984;5.088;2023-04-12T02:03:23;10.50;74.10
69628;DHT22;56850;51.984;5.088;2023-04-12T02:05:51;10.50;74.10
69628;DHT22;56850;51.984;5.088;2023-04-12T02:08:19;10.50;74.00
69628;DHT22;56850;51.984;5.088;2023-04-12T02:10:47;10.50;74.00
69628;DHT22;56850;51.984;5.088;2023-04-12T02:13:14;10.50;74.20
69628;DHT22;56850;51.984;5.088;2023-04-12T02:15:43;10.50;74.30
69628;DHT22;56850;51.984;5.088;2023-04-12T02:18:11;10.40;74.40
69628;DHT22;56850;51.984;5.088;2023-04-12T02:20:40;10.40;74.50
69628;DHT22;56850;51.984;5.088;2023-04-12T02:23:07;10.40;74.40
69628;DHT22;56850;51.984;5.088;2023-04-12T02:25:35;10.40;74.50
69628;DHT22;56850;51.984;5.088;2023-04-12T02:28:02;10.40;74.70
69628;DHT22;56850;51.984;5.088;2023-04-12T02:30:29;10.40;74.80
69628;DHT22;56850;51.984;5.088;2023-04-12T02:32:56;10.40;74.70
69628;DHT22;56850;51.984;5.088;2023-04-12T02:35:30;10.40;74.80
69628;DHT22;56850;51.984;5.088;2023-04-12T02:38:04;10.40;74.90
69628;DHT22;56850;51.984;5.088;2023-04-12T02:40:39;10.40;74.90
69628;DHT22;56850;51.984;5.088;2023-04-12T02:43:12;10.40;75.00
69628;DHT22;56850;51.984;5.088;2023-04-12T02:45:42;10.40;74.90
69628;DHT22;56850;51.984;5.088;2023-04-12T02:48:10;10.40;74.90
69628;DHT22;56850;51.984;5.088;2023-04-12T02:50:37;10.40;75.00
69628;DHT22;56850;51.984;5.088;2023-04-12T02:53:14;10.40;75.10
69628;DHT22;56850;51.984;5.088;2023-04-12T02:55:46;10.40;75.10
69628;DHT22;56850;51.984;5.088;2023-04-12T02:58:15;10.40;75.20
69628;DHT22;56850;51.984;5.088;2023-04-12T03:00:46;10.40;75.30
69628;DHT22;56850;51.984;5.088;2023-04-12T03:03:19;10.40;75.30
69628;DHT22;56850;51.984;5.088;2023-04-12T03:05:51;10.30;75.50
69628;DHT22;56850;51.984;5.088;2023-04-12T03:08:18;10.30;75.60
69628;DHT22;56850;51.984;5.088;2023-04-12T03:10:51;10.40;75.50
69628;DHT22;56850;51.984;5.088;2023-04-12T03:13:18;10.40;75.60
69628;DHT22;56850;51.984;5.088;2023-04-12T03:15:47;10.40;75.70
69628;DHT22;56850;51.984;5.088;2023-04-12T03:18:19;10.40;75.90
69628;DHT22;56850;51.984;5.088;2023-04-12T03:20:49;10.30;76.00
69628;DHT22;56850;51.984;5.088;2023-04-12T03:23:18;10.30;76.10
69628;DHT22;56850;51.984;5.088;2023-04-12T03:25:52;10.30;76.20
69628;DHT22;56850;51.984;5.088;2023-04-12T03:28:34;10.20;76.30
69628;DHT22;56850;51.984;5.088;2023-04-12T03:31:04;10.30;76.30
69628;DHT22;56850;51.984;5.088;2023-04-12T03:33:57;10.20;76.60
69628;DHT22;56850;51.984;5.088;2023-04-12T03:36:24;10.20;76.70
69628;DHT22;56850;51.984;5.088;2023-04-12T03:39:03;10.20;76.70
69628;DHT22;56850;51.984;5.088;2023-04-12T03:41:33;10.20;76.80
69628;DHT22;56850;51.984;5.088;2023-04-12T03:44:02;10.20;76.80
69628;DHT22;56850;51.984;5.088;2023-04-12T03:46:31;10.20;76.90
69628;DHT22;56850;51.984;5.088;2023-04-12T03:49:03;10.20;76.90
69628;DHT22;56850;51.984;5.088;2023-04-12T03:51:31;10.20;77.00
69628;DHT22;56850;51.984;5.088;2023-04-12T03:54:01;10.20;77.20
69628;DHT22;56850;51.984;5.088;2023-04-12T03:56:34;10.20;77.40
69628;DHT22;56850;51.984;5.088;2023-04-12T03:59:05;10.10;77.40
69628;DHT22;56850;51.984;5.088;2023-04-12T04:01:36;10.20;77.30
69628;DHT22;56850;51.984;5.088;2023-04-12T04:04:05;10.20;77.40
69628;DHT22;56850;51.984;5.088;2023-04-12T04:06:33;10.20;77.60
69628;DHT22;56850;51.984;5.088;2023-04-12T04:09:00;10.20;77.60
69628;DHT22;56850;51.984;5.088;2023-04-12T04:11:30;10.10;77.70
69628;DHT22;56850;51.984;5.088;2023-04-12T04:14:04;10.10;77.70
69628;DHT22;56850;51.984;5.088;2023-04-12T04:16:31;10.20;77.60
69628;DHT22;56850;51.984;5.088;2023-04-12T04:19:00;10.20;77.70
69628;DHT22;56850;51.984;5.088;2023-04-12T04:21:27;10.20;77.60
69628;DHT22;56850;51.984;5.088;2023-04-12T04:24:00;10.20;77.60
69628;DHT22;56850;51.984;5.088;2023-04-12T04:26:33;10.20;77.60
69628;DHT22;56850;51.984;5.088;2023-04-12T04:29:07;10.20;77.60
69628;DHT22;56850;51.984;5.088;2023-04-12T04:31:38;10.20;77.60
69628;DHT22;56850;51.984;5.088;2023-04-12T04:34:06;10.20;77.60
69628;DHT22;56850;51.984;5.088;2023-04-12T04:36:42;10.20;77.60
69628;DHT22;56850;51.984;5.088;2023-04-12T04:39:11;10.20;77.60
69628;DHT22;56850;51.984;5.088;2023-04-12T04:41:39;10.20;77.60
69628;DHT22;56850;51.984;5.088;2023-04-12T04:44:31;10.30;77.70
69628;DHT22;56850;51.984;5.088;2023-04-12T04:47:04;10.20;77.80
69628;DHT22;56850;51.984;5.088;2023-04-12T04:49:32;10.20;78.00
69628;DHT22;56850;51.984;5.088;2023-04-12T04:52:06;10.20;78.00
69628;DHT22;56850;51.984;5.088;2023-04-12T04:54:34;10.20;78.10
69628;DHT22;56850;51.984;5.088;2023-04-12T04:57:01;10.20;78.10
69628;DHT22;56850;51.984;5.088;2023-04-12T04:59:28;10.20;78.10
69628;DHT22;56850;51.984;5.088;2023-04-12T05:02:09;10.20;78.00
69628;DHT22;56850;51.984;5.088;2023-04-12T05:04:36;10.30;78.00
69628;DHT22;56850;51.984;5.088;2023-04-12T05:07:03;10.30;77.90
69628;DHT22;56850;51.984;5.088;2023-04-12T05:09:30;10.30;77.90
69628;DHT22;56850;51.984;5.088;2023-04-12T05:11:58;10.40;77.90
69628;DHT22;56850;51.984;5.088;2023-04-12T05:14:25;10.40;77.90
69628;DHT22;56850;51.984;5.088;2023-04-12T05:17:10;10.40;77.90
69628;DHT22;56850;51.984;5.088;2023-04-12T05:19:37;10.40;77.80
69628;DHT22;56850;51.984;5.088;2023-04-12T05:22:05;10.40;77.80
69628;DHT22;56850;51.984;5.088;2023-04-12T05:24:32;10.40;77.90
69628;DHT22;56850;51.984;5.088;2023-04-12T05:26:59;10.40;77.90
69628;DHT22;56850;51.984;5.088;2023-04-12T05:29:28;10.40;77.80
69628;DHT22;56850;51.984;5.088;2023-04-12T05:31:57;10.40;78.10
69628;DHT22;56850;51.984;5.088;2023-04-12T05:34:25;10.40;78.10
69628;DHT22;56850;51.984;5.088;2023-04-12T05:36:55;10.40;78.20
69628;DHT22;56850;51.984;5.088;2023-04-12T05:39:22;10.40;78.40
69628;DHT22;56850;51.984;5.088;2023-04-12T05:41:51;10.40;78.50
69628;DHT22;56850;51.984;5.088;2023-04-12T05:44:19;10.40;78.60
69628;DHT22;56850;51.984;5.088;2023-04-12T05:46:47;10.40;78.60
69628;DHT22;56850;51.984;5.088;2023-04-12T05:49:15;10.40;78.50
69628;DHT22;56850;51.984;5.088;2023-04-12T05:51:42;10.50;78.30
69628;DHT22;56850;51.984;5.088;2023-04-12T05:54:19;10.50;78.30
69628;DHT22;56850;51.984;5.088;2023-04-12T05:56:48;10.50;78.10
69628;DHT22;56850;51.984;5.088;2023-04-12T05:59:15;10.60;78.10
69628;DHT22;56850;51.984;5.088;2023-04-12T06:01:45;10.60;78.00
69628;DHT22;56850;51.984;5.088;2023-04-12T06:04:13;10.50;78.00
69628;DHT22;56850;51.984;5.088;2023-04-12T06:06:41;10.60;78.10
69628;DHT22;56850;51.984;5.088;2023-04-12T06:09:09;10.60;78.00
69628;DHT22;56850;51.984;5.088;2023-04-12T06:11:36;10.60;78.00
69628;DHT22;56850;51.984;5.088;2023-04-12T06:14:05;10.60;77.90
69628;DHT22;56850;51.984;5.088;2023-04-12T06:16:32;10.60;78.00
69628;DHT22;56850;51.984;5.088;2023-04-12T06:18:59;10.70;77.90
69628;DHT22;56850;51.984;5.088;2023-04-12T06:21:27;10.70;77.90
69628;DHT22;56850;51.984;5.088;2023-04-12T06:23:54;10.70;77.80
69628;DHT22;56850;51.984;5.088;2023-04-12T06:26:21;10.70;77.80
69628;DHT22;56850;51.984;5.088;2023-04-12T06:28:48;10.70;77.90
69628;DHT22;56850;51.984;5.088;2023-04-12T06:31:15;10.80;78.00
69628;DHT22;56850;51.984;5.088;2023-04-12T06:33:43;10.80;77.90
69628;DHT22;56850;51.984;5.088;2023-04-12T06:36:10;10.80;77.90
69628;DHT22;56850;51.984;5.088;2023-04-12T06:38:38;10.80;77.80
69628;DHT22;56850;51.984;5.088;2023-04-12T06:41:05;10.90;77.70
69628;DHT22;56850;51.984;5.088;2023-04-12T06:43:32;10.90;77.60
69628;DHT22;56850;51.984;5.088;2023-04-12T06:46:00;10.90;77.70
69628;DHT22;56850;51.984;5.088;2023-04-12T06:48:28;10.90;77.70
69628;DHT22;56850;51.984;5.088;2023-04-12T06:50:55;10.90;77.80
69628;DHT22;56850;51.984;5.088;2023-04-12T06:53:22;11.00;77.80
69628;DHT22;56850;51.984;5.088;2023-04-12T06:55:49;11.00;77.80
69628;DHT22;56850;51.984;5.088;2023-04-12T06:58:16;11.00;77.70
69628;DHT22;56850;51.984;5.088;2023-04-12T07:00:43;11.00;77.80
69628;DHT22;56850;51.984;5.088;2023-04-12T07:03:11;11.00;77.80
69628;DHT22;56850;51.984;5.088;2023-04-12T07:05:38;11.10;77.80
69628;DHT22;56850;51.984;5.088;2023-04-12T07:08:06;11.10;77.70
69628;DHT22;56850;51.984;5.088;2023-04-12T07:10:34;11.10;77.70
69628;DHT22;56850;51.984;5.088;2023-04-12T07:13:02;11.10;77.70
69628;DHT22;56850;51.984;5.088;2023-04-12T07:15:32;11.20;77.70
69628;DHT22;56850;51.984;5.088;2023-04-12T07:17:59;11.20;77.60
69628;DHT22;56850;51.984;5.088;2023-04-12T07:20:26;11.20;77.70
69628;DHT22;56850;51.984;5.088;2023-04-12T07:22:53;11.20;77.70
69628;DHT22;56850;51.984;5.088;2023-04-12T07:25:20;11.20;77.60
69628;DHT22;56850;51.984;5.088;2023-04-12T07:27:47;11.30;77.60
69628;DHT22;56850;51.984;5.088;2023-04-12T07:30:17;11.30;77.40
69628;DHT22;56850;51.984;5.088;2023-04-12T07:32:44;11.30;77.60
69628;DHT22;56850;51.984;5.088;2023-04-12T07:35:11;11.30;77.50
69628;DHT22;56850;51.984;5.088;2023-04-12T07:37:38;11.40;77.50
69628;DHT22;56850;51.984;5.088;2023-04-12T07:40:06;11.30;77.40
69628;DHT22;56850;51.984;5.088;2023-04-12T07:42:33;11.40;77.40
69628;DHT22;56850;51.984;5.088;2023-04-12T07:44:59;11.40;77.30
69628;DHT22;56850;51.984;5.088;2023-04-12T07:47:26;11.40;77.20
69628;DHT22;56850;51.984;5.088;2023-04-12T07:49:53;11.50;77.10
69628;DHT22;56850;51.984;5.088;2023-04-12T07:52:21;11.50;77.00
69628;DHT22;56850;51.984;5.088;2023-04-12T07:54:48;11.50;76.80
69628;DHT22;56850;51.984;5.088;2023-04-12T07:57:14;11.50;76.80
69628;DHT22;56850;51.984;5.088;2023-04-12T07:59:42;11.50;76.80
69628;DHT22;56850;51.984;5.088;2023-04-12T08:02:08;11.50;76.80
69628;DHT22;56850;51.984;5.088;2023-04-12T08:04:35;11.60;76.60
69628;DHT22;56850;51.984;5.088;2023-04-12T08:07:03;11.70;76.50
69628;DHT22;56850;51.984;5.088;2023-04-12T08:09:30;11.70;76.40
69628;DHT22;56850;51.984;5.088;2023-04-12T08:11:57;11.80;76.20
69628;DHT22;56850;51.984;5.088;2023-04-12T08:14:24;11.90;76.00
69628;DHT22;56850;51.984;5.088;2023-04-12T08:16:53;11.90;75.70
69628;DHT22;56850;51.984;5.088;2023-04-12T08:19:20;11.90;75.50
69628;DHT22;56850;51.984;5.088;2023-04-12T08:21:47;11.90;75.10
69628;DHT22;56850;51.984;5.088;2023-04-12T08:24:13;11.90;75.10
69628;DHT22;56850;51.984;5.088;2023-04-12T08:26:40;11.90;75.10
69628;DHT22;56850;51.984;5.088;2023-04-12T08:29:08;12.00;74.90
69628;DHT22;56850;51.984;5.088;2023-04-12T08:31:34;12.10;74.60
69628;DHT22;56850;51.984;5.088;2023-04-12T08:34:01;12.10;74.40
69628;DHT22;56850;51.984;5.088;2023-04-12T08:36:28;12.10;74.30
69628;DHT22;56850;51.984;5.088;2023-04-12T08:38:59;12.10;74.10
69628;DHT22;56850;51.984;5.088;2023-04-12T08:41:27;12.10;73.70
69628;DHT22;56850;51.984;5.088;2023-04-12T08:43:55;12.10;73.90
69628;DHT22;56850;51.984;5.088;2023-04-12T08:46:22;12.10;73.80
69628;DHT22;56850;51.984;5.088;2023-04-12T08:48:50;12.20;73.70
69628;DHT22;56850;51.984;5.088;2023-04-12T08:51:20;12.30;73.70
69628;DHT22;56850;51.984;5.088;2023-04-12T08:53:48;12.40;73.50
69628;DHT22;56850;51.984;5.088;2023-04-12T08:56:16;12.50;73.50
69628;DHT22;56850;51.984;5.088;2023-04-12T08:58:45;12.70;73.20
69628;DHT22;56850;51.984;5.088;2023-04-12T09:01:15;12.90;72.90
69628;DHT22;56850;51.984;5.088;2023-04-12T09:03:43;12.90;72.40
69628;DHT22;56850;51.984;5.088;2023-04-12T09:06:11;12.90;71.90
69628;DHT22;56850;51.984;5.088;2023-04-12T09:08:52;13.00;71.80
69628;DHT22;56850;51.984;5.088;2023-04-12T09:11:24;13.00;71.70
69628;DHT22;56850;51.984;5.088;2023-04-12T09:13:53;13.00;71.40
69628;DHT22;56850;51.984;5.088;2023-04-12T09:16:38;13.00;71.30
69628;DHT22;56850;51.984;5.088;2023-04-12T09:19:07;13.00;71.10
69628;DHT22;56850;51.984;5.088;2023-04-12T09:21:35;13.10;70.60
69628;DHT22;56850;51.984;5.088;2023-04-12T09:24:07;13.10;70.20
69628;DHT22;56850;51.984;5.088;2023-04-12T09:26:41;13.20;70.30
69628;DHT22;56850;51.984;5.088;2023-04-12T09:29:24;13.20;69.50
69628;DHT22;56850;51.984;5.088;2023-04-12T09:32:06;13.10;69.00
69628;DHT22;56850;51.984;5.088;2023-04-12T09:34:34;13.10;69.40
69628;DHT22;56850;51.984;5.088;2023-04-12T09:37:17;13.10;69.00
69628;DHT22;56850;51.984;5.088;2023-04-12T09:39:43;13.10;68.90
69628;DHT22;56850;51.984;5.088;2023-04-12T09:42:11;13.20;69.10
69628;DHT22;56850;51.984;5.088;2023-04-12T09:44:59;13.20;68.70
69628;DHT22;56850;51.984;5.088;2023-04-12T09:47:40;13.30;68.10
69628;DHT22;56850;51.984;5.088;2023-04-12T09:50:07;13.40;67.80
69628;DHT22;56850;51.984;5.088;2023-04-12T09:52:37;13.40;67.50
69628;DHT22;56850;51.984;5.088;2023-04-12T09:55:08;13.40;67.30
69628;DHT22;56850;51.984;5.088;2023-04-12T09:57:45;13.50;67.20
69628;DHT22;56850;51.984;5.088;2023-04-12T10:00:13;13.60;66.10
69628;DHT22;56850;51.984;5.088;2023-04-12T10:02:45;13.70;65.90
69628;DHT22;56850;51.984;5.088;2023-04-12T10:05:16;13.60;66.00
69628;DHT22;56850;51.984;5.088;2023-04-12T10:07:44;13.60;65.90
69628;DHT22;56850;51.984;5.088;2023-04-12T10:10:13;13.50;65.60
69628;DHT22;56850;51.984;5.088;2023-04-12T10:12:41;13.40;65.40
69628;DHT22;56850;51.984;5.088;2023-04-12T10:15:09;13.30;65.50
69628;DHT22;56850;51.984;5.088;2023-04-12T10:17:43;13.20;65.30
69628;DHT22;56850;51.984;5.088;2023-04-12T10:20:14;13.20;65.80
69628;DHT22;56850;51.984;5.088;2023-04-12T10:22:50;13.10;66.00
69628;DHT22;56850;51.984;5.088;2023-04-12T10:25:22;13.00;65.90
69628;DHT22;56850;51.984;5.088;2023-04-12T10:27:52;13.00;66.50
69628;DHT22;56850;51.984;5.088;2023-04-12T10:30:21;13.10;66.80
69628;DHT22;56850;51.984;5.088;2023-04-12T10:33:09;13.30;66.90
69628;DHT22;56850;51.984;5.088;2023-04-12T10:35:53;13.60;66.70
69628;DHT22;56850;51.984;5.088;2023-04-12T10:38:21;13.80;65.80
69628;DHT22;56850;51.984;5.088;2023-04-12T10:41:13;13.90;65.40
69628;DHT22;56850;51.984;5.088;2023-04-12T10:43:45;14.00;64.90
69628;DHT22;56850;51.984;5.088;2023-04-12T10:46:52;14.00;64.10
69628;DHT22;56850;51.984;5.088;2023-04-12T10:49:18;13.80;63.70
69628;DHT22;56850;51.984;5.088;2023-04-12T10:54:32;13.80;62.70
69628;DHT22;56850;51.984;5.088;2023-04-12T10:57:02;13.80;61.80
69628;DHT22;56850;51.984;5.088;2023-04-12T10:59:54;13.80;59.70
69628;DHT22;56850;51.984;5.088;2023-04-12T11:02:25;13.80;59.60
69628;DHT22;56850;51.984;5.088;2023-04-12T11:05:05;13.80;58.80
69628;DHT22;56850;51.984;5.088;2023-04-12T11:07:52;13.80;58.60
69628;DHT22;56850;51.984;5.088;2023-04-12T11:10:38;13.90;58.30
69628;DHT22;56850;51.984;5.088;2023-04-12T11:13:05;14.00;58.10
69628;DHT22;56850;51.984;5.088;2023-04-12T11:15:37;13.90;57.90
69628;DHT22;56850;51.984;5.088;2023-04-12T11:18:10;13.90;58.20
69628;DHT22;56850;51.984;5.088;2023-04-12T11:20:38;13.90;57.20
69628;DHT22;56850;51.984;5.088;2023-04-12T11:23:10;13.80;57.70
69628;DHT22;56850;51.984;5.088;2023-04-12T11:25:37;13.90;57.10
69628;DHT22;56850;51.984;5.088;2023-04-12T11:28:04;13.90;55.90
69628;DHT22;56850;51.984;5.088;2023-04-12T11:30:52;13.90;54.20
69628;DHT22;56850;51.984;5.088;2023-04-12T11:33:36;13.90;53.80
69628;DHT22;56850;51.984;5.088;2023-04-12T11:36:10;14.00;53.50
69628;DHT22;56850;51.984;5.088;2023-04-12T11:38:39;14.10;53.50
69628;DHT22;56850;51.984;5.088;2023-04-12T11:41:07;14.20;53.30
69628;DHT22;56850;51.984;5.088;2023-04-12T11:43:35;14.20;53.40
69628;DHT22;56850;51.984;5.088;2023-04-12T11:46:04;14.20;53.50
69628;DHT22;56850;51.984;5.088;2023-04-12T11:48:31;14.20;53.20
69628;DHT22;56850;51.984;5.088;2023-04-12T11:50:58;14.10;52.80
69628;DHT22;56850;51.984;5.088;2023-04-12T11:53:36;14.10;52.80
69628;DHT22;56850;51.984;5.088;2023-04-12T11:56:09;14.20;51.50
69628;DHT22;56850;51.984;5.088;2023-04-12T11:58:36;14.30;50.30
69628;DHT22;56850;51.984;5.088;2023-04-12T12:01:03;14.20;50.90
69628;DHT22;56850;51.984;5.088;2023-04-12T12:03:30;14.20;50.20
69628;DHT22;56850;51.984;5.088;2023-04-12T12:05:57;14.10;50.20
69628;DHT22;56850;51.984;5.088;2023-04-12T12:08:25;14.10;49.10
69628;DHT22;56850;51.984;5.088;2023-04-12T12:10:52;14.10;48.00
69628;DHT22;56850;51.984;5.088;2023-04-12T12:13:50;14.00;47.30
69628;DHT22;56850;51.984;5.088;2023-04-12T12:16:26;13.90;46.80
69628;DHT22;56850;51.984;5.088;2023-04-12T12:18:55;13.80;47.60
69628;DHT22;56850;51.984;5.088;2023-04-12T12:21:22;13.80;48.50
69628;DHT22;56850;51.984;5.088;2023-04-12T12:23:49;13.90;48.90
69628;DHT22;56850;51.984;5.088;2023-04-12T12:26:26;13.90;48.70
69628;DHT22;56850;51.984;5.088;2023-04-12T12:28:55;13.90;49.30
69628;DHT22;56850;51.984;5.088;2023-04-12T12:31:24;13.90;49.50
69628;DHT22;56850;51.984;5.088;2023-04-12T12:33:56;13.90;48.50
69628;DHT22;56850;51.984;5.088;2023-04-12T12:36:32;13.80;48.50
69628;DHT22;56850;51.984;5.088;2023-04-12T12:39:17;13.80;49.00
69628;DHT22;56850;51.984;5.088;2023-04-12T12:41:55;13.90;48.70
69628;DHT22;56850;51.984;5.088;2023-04-12T12:44:22;13.80;46.50
69628;DHT22;56850;51.984;5.088;2023-04-12T12:46:50;13.80;46.80
69628;DHT22;56850;51.984;5.088;2023-04-12T12:49:28;13.80;46.50
69628;DHT22;56850;51.984;5.088;2023-04-12T12:51:55;13.70;47.10
69628;DHT22;56850;51.984;5.088;2023-04-12T12:54:23;13.60;47.70
69628;DHT22;56850;51.984;5.088;2023-04-12T12:57:07;13.40;47.70
69628;DHT22;56850;51.984;5.088;2023-04-12T12:59:34;13.30;47.90
69628;DHT22;56850;51.984;5.088;2023-04-12T13:02:01;13.20;48.40
69628;DHT22;56850;51.984;5.088;2023-04-12T13:04:28;13.10;49.40
69628;DHT22;56850;51.984;5.088;2023-04-12T13:06:55;13.10;50.90
69628;DHT22;56850;51.984;5.088;2023-04-12T13:09:23;13.20;51.50
69628;DHT22;56850;51.984;5.088;2023-04-12T13:11:50;13.50;51.70
69628;DHT22;56850;51.984;5.088;2023-04-12T13:14:17;13.60;51.20
69628;DHT22;56850;51.984;5.088;2023-04-12T13:16:43;13.80;52.40
69628;DHT22;56850;51.984;5.088;2023-04-12T13:19:11;14.10;53.60
69628;DHT22;56850;51.984;5.088;2023-04-12T13:21:38;14.40;53.60
69628;DHT22;56850;51.984;5.088;2023-04-12T13:24:08;14.60;53.60
69628;DHT22;56850;51.984;5.088;2023-04-12T13:26:35;14.70;52.90
69628;DHT22;56850;51.984;5.088;2023-04-12T13:29:01;14.70;52.10
69628;DHT22;56850;51.984;5.088;2023-04-12T13:31:28;14.60;51.70
69628;DHT22;56850;51.984;5.088;2023-04-12T13:33:55;14.50;51.20
69628;DHT22;56850;51.984;5.088;2023-04-12T13:36:23;14.40;51.50
69628;DHT22;56850;51.984;5.088;2023-04-12T13:38:49;14.50;51.10
69628;DHT22;56850;51.984;5.088;2023-04-12T13:41:17;14.60;50.70
69628;DHT22;56850;51.984;5.088;2023-04-12T13:43:44;14.40;50.90
69628;DHT22;56850;51.984;5.088;2023-04-12T13:46:11;14.60;51.60
69628;DHT22;56850;51.984;5.088;2023-04-12T13:48:39;15.00;51.20
69628;DHT22;56850;51.984;5.088;2023-04-12T13:51:06;15.20;51.10
69628;DHT22;56850;51.984;5.088;2023-04-12T13:53:33;15.10;50.20
69628;DHT22;56850;51.984;5.088;2023-04-12T13:55:59;14.90;50.60
69628;DHT22;56850;51.984;5.088;2023-04-12T13:58:27;14.90;51.20
69628;DHT22;56850;51.984;5.088;2023-04-12T14:00:54;14.90;50.50
69628;DHT22;56850;51.984;5.088;2023-04-12T14:03:24;14.60;50.40
69628;DHT22;56850;51.984;5.088;2023-04-12T14:05:51;14.30;50.70
69628;DHT22;56850;51.984;5.088;2023-04-12T14:08:18;14.00;51.40
69628;DHT22;56850;51.984;5.088;2023-04-12T14:10:45;13.90;52.10
69628;DHT22;56850;51.984;5.088;2023-04-12T14:13:12;13.80;52.60
69628;DHT22;56850;51.984;5.088;2023-04-12T14:15:38;13.70;52.80
69628;DHT22;56850;51.984;5.088;2023-04-12T14:18:05;13.60;53.20
69628;DHT22;56850;51.984;5.088;2023-04-12T14:20:32;13.50;53.30
69628;DHT22;56850;51.984;5.088;2023-04-12T14:22:59;13.30;53.50
69628;DHT22;56850;51.984;5.088;2023-04-12T14:25:26;13.20;54.20
69628;DHT22;56850;51.984;5.088;2023-04-12T14:27:53;13.20;54.30
69628;DHT22;56850;51.984;5.088;2023-04-12T14:30:20;13.20;54.70
69628;DHT22;56850;51.984;5.088;2023-04-12T14:32:47;13.10;54.80
69628;DHT22;56850;51.984;5.088;2023-04-12T14:35:15;13.10;55.00
69628;DHT22;56850;51.984;5.088;2023-04-12T14:37:42;13.30;55.10
69628;DHT22;56850;51.984;5.088;2023-04-12T14:40:10;13.70;54.50
69628;DHT22;56850;51.984;5.088;2023-04-12T14:42:37;13.80;53.80
69628;DHT22;56850;51.984;5.088;2023-04-12T14:45:04;13.70;53.80
69628;DHT22;56850;51.984;5.088;2023-04-12T14:47:33;13.60;53.80
69628;DHT22;56850;51.984;5.088;2023-04-12T14:50:02;13.40;54.60
69628;DHT22;56850;51.984;5.088;2023-04-12T14:52:29;13.30;55.20
69628;DHT22;56850;51.984;5.088;2023-04-12T14:54:56;13.20;55.80
69628;DHT22;56850;51.984;5.088;2023-04-12T14:57:23;13.20;56.30
69628;DHT22;56850;51.984;5.088;2023-04-12T14:59:50;13.20;56.30
69628;DHT22;56850;51.984;5.088;2023-04-12T15:02:17;13.30;56.20
69628;DHT22;56850;51.984;5.088;2023-04-12T15:04:47;13.30;56.00
69628;DHT22;56850;51.984;5.088;2023-04-12T15:07:15;13.30;56.30
69628;DHT22;56850;51.984;5.088;2023-04-12T15:09:42;13.40;55.60
69628;DHT22;56850;51.984;5.088;2023-04-12T15:12:09;13.40;55.50
69628;DHT22;56850;51.984;5.088;2023-04-12T15:14:36;13.40;55.20
69628;DHT22;56850;51.984;5.088;2023-04-12T15:17:03;13.30;55.30
69628;DHT22;56850;51.984;5.088;2023-04-12T15:19:30;13.30;55.80
69628;DHT22;56850;51.984;5.088;2023-04-12T15:21:57;13.40;56.10
69628;DHT22;56850;51.984;5.088;2023-04-12T15:24:25;13.50;55.30
69628;DHT22;56850;51.984;5.088;2023-04-12T15:26:52;13.60;55.20
69628;DHT22;56850;51.984;5.088;2023-04-12T15:29:20;13.70;55.00
69628;DHT22;56850;51.984;5.088;2023-04-12T15:31:48;13.90;54.60
69628;DHT22;56850;51.984;5.088;2023-04-12T15:34:15;14.20;54.00
69628;DHT22;56850;51.984;5.088;2023-04-12T15:36:42;14.40;53.50
69628;DHT22;56850;51.984;5.088;2023-04-12T15:39:10;14.50;52.00
69628;DHT22;56850;51.984;5.088;2023-04-12T15:41:39;14.30;51.90
69628;DHT22;56850;51.984;5.088;2023-04-12T15:44:08;14.20;51.90
69628;DHT22;56850;51.984;5.088;2023-04-12T15:46:35;14.00;52.20
69628;DHT22;56850;51.984;5.088;2023-04-12T15:49:02;13.80;52.10
69628;DHT22;56850;51.984;5.088;2023-04-12T15:51:29;13.80;52.40
69628;DHT22;56850;51.984;5.088;2023-04-12T15:53:58;13.70;52.40
69628;DHT22;56850;51.984;5.088;2023-04-12T15:56:25;13.80;52.70
69628;DHT22;56850;51.984;5.088;2023-04-12T15:58:53;14.10;52.70